Aérodrome :
LOGIN :

S'inscrire | Disclaimer

   EN    FR    IT 

 










Légende :    VFR   VFR Marginal   IFR   IFR Intensif   IFR Très Intensif
Visi : 
Plafond : 
>= 8 km
>= 3000ft
5 à 8 km
1000 à 3000 ft
1500m à 5 km
500 à 1000 ft
800 à 1500m
200 à 500 ft
< 800m
< 200 ft
Symboles :   Orages  Brouillard  Fortes neiges  Fortes précipitations  Vent > 20 kt
SIGMETs :   Divers  Orages  Givrage  Turbulence  Onde Orograph.  Cendres Volcan.







- Altitude de l'aérodrome : 502 ft
- Code IATA : ORK


EICK - Cork

DERNIER METAR :
  • 211000Z 19013G23KT 9999 BKN008 17/16 Q1015 TEMPO 5000

METARs EXPIRÉS :
  • 210930Z 19016KT 9999 BKN007 BKN014 18/16 Q1015 TEMPO 5000
  • 210900Z 19013KT 9999 BKN006 BKN014 17/16 Q1015 TEMPO 5000
  • 210830Z 20016KT 9999 BKN007 BKN016 17/16 Q1015 TEMPO 5000
  • 210800Z 19013KT 9999 SCT005 BKN008 17/16 Q1015 TEMPO 5000
  • 210730Z 19014KT 9999 BKN005 BKN009 16/16 Q1015 TEMPO 5000

TAF COR TAF EICK
Valide du 21 à 06h jusqu'au 22 à 06h UTC


210504Z 2106/2206 19010KT 9999 -RA SCT007 BKN015
PROB40
TEMPO 2106/2108 5000 BKN007
BECMG 2108/2110 20015G25KT
TEMPO 2108/2110 5000 -RADZ BKN007
BECMG 2110/2112 20018G30KT 5000 -RA SCT004 BKN007
BECMG 2112/2115 3000 -DZ BR SCT002 BKN004
PROB30
TEMPO 2112/2115 RADZ
TEMPO 2115/2206 0400 FG BKN002
BECMG 2118/2121 23017G28KT
BECMG 2201/2204 23013KT
Pas de NOTAMs connus pour ce terrain.
1 SIGMET publié pour la FIR Shannon (EISN) :
 
Orages noyés dans la masse
EISN SIGMET 04 VALID 211000/211300 EINN
EISN SHANNON FIR/UIR EMBD TS FCST N OF N5300 AND W OF W01000 TOP FL250 MOV ENE 20KT NC=



MET'MAP, la Météo Aéronautique d'un coup d'oeil ! - Copyright ORBIFLY Décembre 2007 - Disclaimer

ORBIFLY MET'MAP TEAM :

Programmation & Développement : Alexandra Zaïnal
Conception & Développement : Baudouin d'Aumeries
Co-Programmation & Développement : Marc-Olivier Méhu
Soutien technique & logistique : Manuel Goepfert

Contact : metmap@orbifly.com




SOURCES & CREDITS :

   NOAA